Hotchkiss, CO

12:42 PM MST on December 26, 2014 (GMT -0700)
Montrose Regional | Change Station
CLOSE
Current Station
Airport
Location: Montrose,
Elevation: 5758 ft
Nearby Weather Stations

Elev 5758 ft 38.51 °N, 107.90 °W | Updated 32 minutes ago

Overcast
Overcast
27 °F
Feels Like 23 °F
N
4
Wind Variable Wind from NW

Today
High -- | Low -- °F
--% Chance of Precip.
Yesterday
High -- | Low -- °F
Precip. -- in
7:27 AM 4:55 PM
Waxing Crescent, 28% visible
Pressure 29.81 in
Visibility 10.0 miles
Clouds Scattered Clouds 1400 ft
Overcast 2000 ft
Windchill 23 °F
Dew Point 19 °F
Humidity 72%
Rainfall 0.03 in
Snow Depth Not available.
UV 1 out of 12
Pollen .10 out of 12
Air Quality Not available.
Flu Activity Not available.
SPECI KMTJ 261910Z AUTO 31003KT 10SM SCT014 OVC020 M03/M07 A2981 RMK AO2 T10281072

More Conditions Fewer Conditions

Pressure 29.81 in
Visibility 10.0 miles
Clouds Scattered Clouds 1400 ft
Overcast 2000 ft
Windchill 23 °F
Dew Point 19 °F
Humidity 72%
Rainfall 0.03 in
Snow Depth Not available.
UV 1 out of 12
Pollen .10 out of 12
Air Quality Not available.
Flu Activity Not available.
SPECI KMTJ 261910Z AUTO 31003KT 10SM SCT014 OVC020 M03/M07 A2981 RMK AO2 T10281072

More Conditions Fewer Conditions

10-Day Weather Forecast

Almanac

Astronomy

Dec. 26, 2014 Rise Set
Actual Time
Civil Twilight
Nautical Twilight
Astronomical Twilight
Moon
Length of Visible Light
Length of Day
Tomorrow will be .
, % of the Moon is Illuminated

Today's Extremes

State Highs State Lows

Community

WunderPhotos

Upload Photos

1,780,680 photos uploaded!

WunderBlogs® & News

Nearby

Air Quality

  Air Quality AQ Index Pollutant
Not available.

Snow Depth

Station Depth Elevation

Earthquake Activity

City Distance Mag. Time & Date
Minimum magnitude displayed is 2.5.

Coastal Water Temperatures

Place Temperature

Nearby Weather Stations